sensor_id;sensor_type;location;lat;lon;timestamp;temperature;humidity
65369;HTU21D;51970;53.484;49.488;2023-02-01T07:13:15;-3.90;59.23
65369;HTU21D;51970;53.484;49.488;2023-02-01T07:15:43;-3.64;58.96
65369;HTU21D;51970;53.484;49.488;2023-02-01T07:18:16;-3.60;57.96
65369;HTU21D;51970;53.484;49.488;2023-02-01T07:20:43;-3.57;58.31
65369;HTU21D;51970;53.484;49.488;2023-02-01T07:23:10;-3.60;57.94
65369;HTU21D;51970;53.484;49.488;2023-02-01T07:25:37;-3.53;58.28
65369;HTU21D;51970;53.484;49.488;2023-02-01T07:28:03;-3.42;58.32
65369;HTU21D;51970;53.484;49.488;2023-02-01T07:30:32;-3.30;57.74
65369;HTU21D;51970;53.484;49.488;2023-02-01T07:32:58;-3.35;57.73
65369;HTU21D;51970;53.484;49.488;2023-02-01T07:35:27;-3.26;57.81
65369;HTU21D;51970;53.484;49.488;2023-02-01T07:37:57;-3.20;57.27
65369;HTU21D;51970;53.484;49.488;2023-02-01T07:40:24;-3.10;57.06
65369;HTU21D;51970;53.484;49.488;2023-02-01T07:42:56;-3.00;57.12
65369;HTU21D;51970;53.484;49.488;2023-02-01T07:45:23;-2.83;56.53
65369;HTU21D;51970;53.484;49.488;2023-02-01T07:47:51;-2.92;56.67
65369;HTU21D;51970;53.484;49.488;2023-02-01T07:50:19;-2.92;57.21
65369;HTU21D;51970;53.484;49.488;2023-02-01T07:52:45;-2.94;57.35
65369;HTU21D;51970;53.484;49.488;2023-02-01T07:55:15;-2.90;57.19
65369;HTU21D;51970;53.484;49.488;2023-02-01T07:57:41;-2.80;57.30
65369;HTU21D;51970;53.484;49.488;2023-02-01T08:00:08;-2.59;56.42
65369;HTU21D;51970;53.484;49.488;2023-02-01T08:02:54;-2.49;56.19
65369;HTU21D;51970;53.484;49.488;2023-02-01T08:05:20;-2.21;56.34
65369;HTU21D;51970;53.484;49.488;2023-02-01T08:07:50;-2.19;55.28
65369;HTU21D;51970;53.484;49.488;2023-02-01T08:10:18;-2.01;55.35
65369;HTU21D;51970;53.484;49.488;2023-02-01T08:12:46;-1.82;55.13
65369;HTU21D;51970;53.484;49.488;2023-02-01T08:15:17;-1.67;54.92
65369;HTU21D;51970;53.484;49.488;2023-02-01T08:17:49;-1.52;55.02
65369;HTU21D;51970;53.484;49.488;2023-02-01T08:20:18;-1.33;54.01
65369;HTU21D;51970;53.484;49.488;2023-02-01T08:22:45;-1.40;53.88
65369;HTU21D;51970;53.484;49.488;2023-02-01T08:25:12;-1.34;54.07
65369;HTU21D;51970;53.484;49.488;2023-02-01T08:27:39;-1.18;53.32
65369;HTU21D;51970;53.484;49.488;2023-02-01T08:30:09;-1.16;53.66
65369;HTU21D;51970;53.484;49.488;2023-02-01T08:32:48;-1.15;53.31
65369;HTU21D;51970;53.484;49.488;2023-02-01T08:35:16;-1.23;54.10
65369;HTU21D;51970;53.484;49.488;2023-02-01T08:37:46;-1.39;54.42
65369;HTU21D;51970;53.484;49.488;2023-02-01T08:40:13;-1.06;54.12
65369;HTU21D;51970;53.484;49.488;2023-02-01T08:42:41;-0.80;53.77
65369;HTU21D;51970;53.484;49.488;2023-02-01T08:45:18;-1.00;52.91
65369;HTU21D;51970;53.484;49.488;2023-02-01T08:47:46;-0.91;53.81
65369;HTU21D;51970;53.484;49.488;2023-02-01T08:50:16;-0.74;52.82
65369;HTU21D;51970;53.484;49.488;2023-02-01T08:52:44;-1.00;52.90
65369;HTU21D;51970;53.484;49.488;2023-02-01T08:55:11;-0.90;53.33
65369;HTU21D;51970;53.484;49.488;2023-02-01T08:57:41;-0.59;52.92
65369;HTU21D;51970;53.484;49.488;2023-02-01T09:00:12;-0.36;52.78
65369;HTU21D;51970;53.484;49.488;2023-02-01T09:02:39;-0.23;52.11
65369;HTU21D;51970;53.484;49.488;2023-02-01T09:05:06;-0.25;51.88
65369;HTU21D;51970;53.484;49.488;2023-02-01T09:07:33;-0.23;52.17
65369;HTU21D;51970;53.484;49.488;2023-02-01T09:10:01;-0.15;51.43
65369;HTU21D;51970;53.484;49.488;2023-02-01T09:12:29;-0.38;51.56
65369;HTU21D;51970;53.484;49.488;2023-02-01T09:14:58;-0.36;51.44
65369;HTU21D;51970;53.484;49.488;2023-02-01T09:17:26;-0.17;51.89
65369;HTU21D;51970;53.484;49.488;2023-02-01T09:19:53;-0.01;51.48
65369;HTU21D;51970;53.484;49.488;2023-02-01T09:22:20;0.05;50.85
65369;HTU21D;51970;53.484;49.488;2023-02-01T09:24:47;0.04;50.33
65369;HTU21D;51970;53.484;49.488;2023-02-01T09:27:13;0.09;50.26
65369;HTU21D;51970;53.484;49.488;2023-02-01T09:29:40;0.09;49.70
65369;HTU21D;51970;53.484;49.488;2023-02-01T09:32:06;0.19;49.52
65369;HTU21D;51970;53.484;49.488;2023-02-01T09:34:33;0.37;49.87
65369;HTU21D;51970;53.484;49.488;2023-02-01T09:37:01;0.62;49.04
65369;HTU21D;51970;53.484;49.488;2023-02-01T09:39:31;0.60;48.98
65369;HTU21D;51970;53.484;49.488;2023-02-01T09:47:24;0.68;49.08
65369;HTU21D;51970;53.484;49.488;2023-02-01T09:50:04;0.71;48.76
65369;HTU21D;51970;53.484;49.488;2023-02-01T09:52:38;0.73;48.31
65369;HTU21D;51970;53.484;49.488;2023-02-01T09:55:19;0.83;47.56
65369;HTU21D;51970;53.484;49.488;2023-02-01T09:58:14;0.71;48.28
65369;HTU21D;51970;53.484;49.488;2023-02-01T10:00:50;0.54;48.01
65369;HTU21D;51970;53.484;49.488;2023-02-01T10:03:19;0.52;48.26
65369;HTU21D;51970;53.484;49.488;2023-02-01T10:11:59;0.30;48.47
65369;HTU21D;51970;53.484;49.488;2023-02-01T10:14:42;0.19;48.51
65369;HTU21D;51970;53.484;49.488;2023-02-01T10:17:24;0.18;49.32
65369;HTU21D;51970;53.484;49.488;2023-02-01T10:20:07;0.30;49.38
65369;HTU21D;51970;53.484;49.488;2023-02-01T10:22:58;0.23;48.99
65369;HTU21D;51970;53.484;49.488;2023-02-01T10:25:36;0.22;48.92
65369;HTU21D;51970;53.484;49.488;2023-02-01T10:28:04;0.28;49.22
65369;HTU21D;51970;53.484;49.488;2023-02-01T10:30:39;0.31;49.06
65369;HTU21D;51970;53.484;49.488;2023-02-01T10:33:30;0.37;49.09
65369;HTU21D;51970;53.484;49.488;2023-02-01T10:38:35;0.36;49.55
65369;HTU21D;51970;53.484;49.488;2023-02-01T10:41:08;0.50;48.76
65369;HTU21D;51970;53.484;49.488;2023-02-01T10:43:37;0.50;49.02
65369;HTU21D;51970;53.484;49.488;2023-02-01T10:46:06;0.60;48.99
65369;HTU21D;51970;53.484;49.488;2023-02-01T10:48:33;0.55;48.98
65369;HTU21D;51970;53.484;49.488;2023-02-01T10:53:57;0.47;49.08
65369;HTU21D;51970;53.484;49.488;2023-02-01T10:56:29;0.43;49.01
65369;HTU21D;51970;53.484;49.488;2023-02-01T10:59:06;0.30;48.79
65369;HTU21D;51970;53.484;49.488;2023-02-01T11:01:41;0.27;49.47
65369;HTU21D;51970;53.484;49.488;2023-02-01T11:04:15;0.01;50.60
65369;HTU21D;51970;53.484;49.488;2023-02-01T11:06:48;-0.00;50.45
65369;HTU21D;51970;53.484;49.488;2023-02-01T11:09:24;0.08;50.80
65369;HTU21D;51970;53.484;49.488;2023-02-01T11:11:55;-0.00;50.72
65369;HTU21D;51970;53.484;49.488;2023-02-01T11:17:00;-0.16;51.11
65369;HTU21D;51970;53.484;49.488;2023-02-01T11:19:28;-0.14;51.33
65369;HTU21D;51970;53.484;49.488;2023-02-01T11:21:58;-0.30;51.66
65369;HTU21D;51970;53.484;49.488;2023-02-01T11:24:32;-0.41;52.64
65369;HTU21D;51970;53.484;49.488;2023-02-01T11:27:04;-0.43;52.91
65369;HTU21D;51970;53.484;49.488;2023-02-01T11:29:37;-0.32;52.84
65369;HTU21D;51970;53.484;49.488;2023-02-01T11:32:04;-0.45;53.37
65369;HTU21D;51970;53.484;49.488;2023-02-01T11:34:51;-0.38;53.04
65369;HTU21D;51970;53.484;49.488;2023-02-01T11:37:36;-0.37;52.61
65369;HTU21D;51970;53.484;49.488;2023-02-01T11:40:36;-0.35;51.98
65369;HTU21D;51970;53.484;49.488;2023-02-01T11:43:22;-0.50;52.40
65369;HTU21D;51970;53.484;49.488;2023-02-01T11:45:54;-0.64;52.73
65369;HTU21D;51970;53.484;49.488;2023-02-01T11:48:23;-0.62;52.72
65369;HTU21D;51970;53.484;49.488;2023-02-01T12:13:44;-1.12;54.96
65369;HTU21D;51970;53.484;49.488;2023-02-01T12:16:53;-1.04;54.64
65369;HTU21D;51970;53.484;49.488;2023-02-01T12:28:34;-1.15;53.74
65369;HTU21D;51970;53.484;49.488;2023-02-01T12:31:17;-1.23;54.10
65369;HTU21D;51970;53.484;49.488;2023-02-01T12:34:07;-1.26;54.26
65369;HTU21D;51970;53.484;49.488;2023-02-01T12:44:50;-1.56;54.54
65369;HTU21D;51970;53.484;49.488;2023-02-01T12:47:39;-1.56;54.62
65369;HTU21D;51970;53.484;49.488;2023-02-01T12:53:31;-1.98;56.45
65369;HTU21D;51970;53.484;49.488;2023-02-01T12:56:07;-2.14;56.48
65369;HTU21D;51970;53.484;49.488;2023-02-01T12:58:44;-2.30;56.96
65369;HTU21D;51970;53.484;49.488;2023-02-01T13:01:26;-2.41;56.89
65369;HTU21D;51970;53.484;49.488;2023-02-01T13:06:57;-2.57;58.18
65369;HTU21D;51970;53.484;49.488;2023-02-01T13:11:57;-2.71;58.16
65369;HTU21D;51970;53.484;49.488;2023-02-01T13:14:40;-2.76;57.72
65369;HTU21D;51970;53.484;49.488;2023-02-01T13:17:29;-2.95;58.24
65369;HTU21D;51970;53.484;49.488;2023-02-01T13:20:28;-3.07;58.04
65369;HTU21D;51970;53.484;49.488;2023-02-01T13:23:10;-3.15;58.61
65369;HTU21D;51970;53.484;49.488;2023-02-01T13:25:49;-3.24;58.86
65369;HTU21D;51970;53.484;49.488;2023-02-01T13:28:41;-3.38;58.96
65369;HTU21D;51970;53.484;49.488;2023-02-01T13:31:14;-3.37;58.63
65369;HTU21D;51970;53.484;49.488;2023-02-01T13:42:21;-3.57;58.81
65369;HTU21D;51970;53.484;49.488;2023-02-01T13:45:03;-3.60;58.40
65369;HTU21D;51970;53.484;49.488;2023-02-01T13:47:33;-3.66;58.14
65369;HTU21D;51970;53.484;49.488;2023-02-01T13:50:11;-3.71;58.31
65369;HTU21D;51970;53.484;49.488;2023-02-01T13:52:43;-3.66;58.18
65369;HTU21D;51970;53.484;49.488;2023-02-01T13:57:43;-3.89;58.36
65369;HTU21D;51970;53.484;49.488;2023-02-01T14:00:33;-3.86;58.58
65369;HTU21D;51970;53.484;49.488;2023-02-01T14:29:37;-4.06;57.42
65369;HTU21D;51970;53.484;49.488;2023-02-01T14:32:21;-4.20;57.71
65369;HTU21D;51970;53.484;49.488;2023-02-01T14:44:55;-4.43;58.38
65369;HTU21D;51970;53.484;49.488;2023-02-01T14:50:13;-4.55;58.58
65369;HTU21D;51970;53.484;49.488;2023-02-01T14:52:46;-4.60;58.22
65369;HTU21D;51970;53.484;49.488;2023-02-01T14:55:38;-4.64;58.51
65369;HTU21D;51970;53.484;49.488;2023-02-01T15:00:52;-4.54;58.99
65369;HTU21D;51970;53.484;49.488;2023-02-01T15:03:48;-4.67;58.41
65369;HTU21D;51970;53.484;49.488;2023-02-01T15:06:46;-4.74;58.54
65369;HTU21D;51970;53.484;49.488;2023-02-01T15:09:25;-4.82;58.62
65369;HTU21D;51970;53.484;49.488;2023-02-01T15:12:05;-4.86;59.14
65369;HTU21D;51970;53.484;49.488;2023-02-01T15:14:33;-4.91;59.32
65369;HTU21D;51970;53.484;49.488;2023-02-01T15:17:00;-4.88;59.37
65369;HTU21D;51970;53.484;49.488;2023-02-01T15:19:29;-4.95;59.38
65369;HTU21D;51970;53.484;49.488;2023-02-01T15:21:59;-4.99;58.91
65369;HTU21D;51970;53.484;49.488;2023-02-01T15:24:31;-4.97;58.93
65369;HTU21D;51970;53.484;49.488;2023-02-01T15:27:04;-5.02;58.89
65369;HTU21D;51970;53.484;49.488;2023-02-01T15:29:39;-5.00;58.86
65369;HTU21D;51970;53.484;49.488;2023-02-01T15:32:30;-4.98;59.03
65369;HTU21D;51970;53.484;49.488;2023-02-01T15:34:57;-4.97;58.90
65369;HTU21D;51970;53.484;49.488;2023-02-01T15:37:28;-5.00;58.90
65369;HTU21D;51970;53.484;49.488;2023-02-01T15:42:55;-5.14;59.48
65369;HTU21D;51970;53.484;49.488;2023-02-01T15:45:33;-5.23;59.73
65369;HTU21D;51970;53.484;49.488;2023-02-01T15:48:00;-5.28;59.84
65369;HTU21D;51970;53.484;49.488;2023-02-01T15:50:31;-5.37;60.38
65369;HTU21D;51970;53.484;49.488;2023-02-01T15:52:57;-5.41;60.78
65369;HTU21D;51970;53.484;49.488;2023-02-01T15:55:34;-5.42;60.72
65369;HTU21D;51970;53.484;49.488;2023-02-01T15:58:08;-5.42;60.82
65369;HTU21D;51970;53.484;49.488;2023-02-01T16:00:43;-5.54;61.38
65369;HTU21D;51970;53.484;49.488;2023-02-01T16:03:37;-5.61;60.79
65369;HTU21D;51970;53.484;49.488;2023-02-01T16:06:10;-5.63;60.85
65369;HTU21D;51970;53.484;49.488;2023-02-01T16:08:37;-5.61;60.92
65369;HTU21D;51970;53.484;49.488;2023-02-01T16:13:33;-5.78;61.65
65369;HTU21D;51970;53.484;49.488;2023-02-01T16:15:59;-5.76;61.77
65369;HTU21D;51970;53.484;49.488;2023-02-01T16:18:25;-5.62;62.05
65369;HTU21D;51970;53.484;49.488;2023-02-01T16:20:51;-5.96;62.32
65369;HTU21D;51970;53.484;49.488;2023-02-01T16:23:18;-6.05;62.40
65369;HTU21D;51970;53.484;49.488;2023-02-01T16:25:46;-6.06;62.37
65369;HTU21D;51970;53.484;49.488;2023-02-01T16:28:12;-6.01;61.67
65369;HTU21D;51970;53.484;49.488;2023-02-01T16:30:38;-6.11;61.44
65369;HTU21D;51970;53.484;49.488;2023-02-01T16:33:05;-6.17;61.50
65369;HTU21D;51970;53.484;49.488;2023-02-01T16:35:36;-6.17;61.55
65369;HTU21D;51970;53.484;49.488;2023-02-01T16:38:11;-6.00;61.65
65369;HTU21D;51970;53.484;49.488;2023-02-01T16:40:45;-6.26;61.62
65369;HTU21D;51970;53.484;49.488;2023-02-01T16:45:39;-6.27;61.95
65369;HTU21D;51970;53.484;49.488;2023-02-01T16:48:06;-6.20;62.09
65369;HTU21D;51970;53.484;49.488;2023-02-01T16:50:33;-6.30;62.16
65369;HTU21D;51970;53.484;49.488;2023-02-01T16:53:01;-6.29;62.24
65369;HTU21D;51970;53.484;49.488;2023-02-01T16:55:30;-6.33;61.89
65369;HTU21D;51970;53.484;49.488;2023-02-01T16:58:00;-6.28;61.93
65369;HTU21D;51970;53.484;49.488;2023-02-01T17:00:26;-6.33;62.10
65369;HTU21D;51970;53.484;49.488;2023-02-01T17:02:56;-6.37;61.93
65369;HTU21D;51970;53.484;49.488;2023-02-01T17:05:23;-6.48;61.87
65369;HTU21D;51970;53.484;49.488;2023-02-01T17:07:49;-6.59;62.12
65369;HTU21D;51970;53.484;49.488;2023-02-01T17:10:25;-6.47;62.75
65369;HTU21D;51970;53.484;49.488;2023-02-01T17:12:53;-6.55;62.08
65369;HTU21D;51970;53.484;49.488;2023-02-01T17:15:32;-6.47;61.79
65369;HTU21D;51970;53.484;49.488;2023-02-01T17:18:05;-6.51;61.54
65369;HTU21D;51970;53.484;49.488;2023-02-01T17:20:35;-6.53;61.38
65369;HTU21D;51970;53.484;49.488;2023-02-01T17:23:04;-6.60;61.57
65369;HTU21D;51970;53.484;49.488;2023-02-01T17:25:31;-6.65;61.86
65369;HTU21D;51970;53.484;49.488;2023-02-01T17:27:58;-6.65;62.02
65369;HTU21D;51970;53.484;49.488;2023-02-01T17:30:24;-6.61;61.51
65369;HTU21D;51970;53.484;49.488;2023-02-01T17:32:51;-6.70;61.28
65369;HTU21D;51970;53.484;49.488;2023-02-01T17:35:24;-6.74;61.70
65369;HTU21D;51970;53.484;49.488;2023-02-01T17:37:51;-6.70;62.16
65369;HTU21D;51970;53.484;49.488;2023-02-01T17:40:18;-6.62;61.55
65369;HTU21D;51970;53.484;49.488;2023-02-01T17:42:44;-6.64;61.17
65369;HTU21D;51970;53.484;49.488;2023-02-01T17:47:40;-6.76;61.44
65369;HTU21D;51970;53.484;49.488;2023-02-01T17:50:07;-6.77;61.69
65369;HTU21D;51970;53.484;49.488;2023-02-01T17:52:36;-6.85;61.59
65369;HTU21D;51970;53.484;49.488;2023-02-01T17:55:18;-6.89;61.43
65369;HTU21D;51970;53.484;49.488;2023-02-01T17:57:44;-6.89;61.96
65369;HTU21D;51970;53.484;49.488;2023-02-01T18:00:12;-6.89;62.00
65369;HTU21D;51970;53.484;49.488;2023-02-01T18:02:41;-6.90;61.71
65369;HTU21D;51970;53.484;49.488;2023-02-01T18:05:49;-6.88;61.67
65369;HTU21D;51970;53.484;49.488;2023-02-01T18:08:24;-6.90;61.75
65369;HTU21D;51970;53.484;49.488;2023-02-01T18:11:02;-6.87;61.46
65369;HTU21D;51970;53.484;49.488;2023-02-01T18:13:29;-6.92;61.18
65369;HTU21D;51970;53.484;49.488;2023-02-01T18:15:56;-6.96;61.34
65369;HTU21D;51970;53.484;49.488;2023-02-01T18:18:30;-6.97;61.83
65369;HTU21D;51970;53.484;49.488;2023-02-01T18:20:59;-6.90;61.65
65369;HTU21D;51970;53.484;49.488;2023-02-01T18:23:25;-6.89;61.73
65369;HTU21D;51970;53.484;49.488;2023-02-01T18:25:51;-7.07;61.70
65369;HTU21D;51970;53.484;49.488;2023-02-01T18:28:19;-6.98;62.33
65369;HTU21D;51970;53.484;49.488;2023-02-01T18:30:47;-7.29;62.62
65369;HTU21D;51970;53.484;49.488;2023-02-01T18:33:19;-7.27;63.11
65369;HTU21D;51970;53.484;49.488;2023-02-01T18:35:48;-7.32;63.15
65369;HTU21D;51970;53.484;49.488;2023-02-01T18:38:14;-7.29;63.67
65369;HTU21D;51970;53.484;49.488;2023-02-01T18:40:50;-7.18;63.17
65369;HTU21D;51970;53.484;49.488;2023-02-01T18:43:17;-7.26;63.03
65369;HTU21D;51970;53.484;49.488;2023-02-01T18:45:44;-7.29;63.46
65369;HTU21D;51970;53.484;49.488;2023-02-01T18:48:12;-7.33;63.30
65369;HTU21D;51970;53.484;49.488;2023-02-01T18:50:41;-7.15;63.65
65369;HTU21D;51970;53.484;49.488;2023-02-01T18:53:17;-7.31;63.54
65369;HTU21D;51970;53.484;49.488;2023-02-01T18:55:49;-7.38;63.58
65369;HTU21D;51970;53.484;49.488;2023-02-01T18:58:18;-7.33;63.50
65369;HTU21D;51970;53.484;49.488;2023-02-01T19:00:45;-7.27;62.72
65369;HTU21D;51970;53.484;49.488;2023-02-01T19:03:13;-7.29;62.79
65369;HTU21D;51970;53.484;49.488;2023-02-01T19:05:40;-7.24;62.82
65369;HTU21D;51970;53.484;49.488;2023-02-01T19:08:07;-7.31;62.83
65369;HTU21D;51970;53.484;49.488;2023-02-01T19:10:34;-7.35;62.67
65369;HTU21D;51970;53.484;49.488;2023-02-01T19:13:03;-7.37;63.05
65369;HTU21D;51970;53.484;49.488;2023-02-01T19:15:30;-7.36;62.92
65369;HTU21D;51970;53.484;49.488;2023-02-01T19:17:57;-7.45;63.62
65369;HTU21D;51970;53.484;49.488;2023-02-01T19:20:25;-7.39;63.73
65369;HTU21D;51970;53.484;49.488;2023-02-01T19:22:55;-7.22;64.05
65369;HTU21D;51970;53.484;49.488;2023-02-01T19:25:23;-7.19;63.69
65369;HTU21D;51970;53.484;49.488;2023-02-01T19:27:50;-7.19;63.95
65369;HTU21D;51970;53.484;49.488;2023-02-01T19:30:18;-6.75;63.05
65369;HTU21D;51970;53.484;49.488;2023-02-01T19:32:45;-7.22;62.88
65369;HTU21D;51970;53.484;49.488;2023-02-01T19:35:16;-7.22;62.74
65369;HTU21D;51970;53.484;49.488;2023-02-01T19:37:47;-7.29;62.77
65369;HTU21D;51970;53.484;49.488;2023-02-01T19:40:21;-7.24;62.69
65369;HTU21D;51970;53.484;49.488;2023-02-01T19:42:47;-7.33;62.21
65369;HTU21D;51970;53.484;49.488;2023-02-01T19:45:14;-7.40;62.57
65369;HTU21D;51970;53.484;49.488;2023-02-01T19:47:40;-7.40;63.20
65369;HTU21D;51970;53.484;49.488;2023-02-01T19:50:07;-7.27;63.33
65369;HTU21D;51970;53.484;49.488;2023-02-01T19:52:35;-7.49;63.58
65369;HTU21D;51970;53.484;49.488;2023-02-01T19:55:02;-7.67;62.92
65369;HTU21D;51970;53.484;49.488;2023-02-01T19:57:29;-7.68;63.52
65369;HTU21D;51970;53.484;49.488;2023-02-01T19:59:56;-7.62;63.95
65369;HTU21D;51970;53.484;49.488;2023-02-01T20:02:22;-7.66;63.97
65369;HTU21D;51970;53.484;49.488;2023-02-01T20:04:50;-7.71;63.67
65369;HTU21D;51970;53.484;49.488;2023-02-01T20:07:19;-7.55;63.79
65369;HTU21D;51970;53.484;49.488;2023-02-01T20:09:45;-7.78;63.68
65369;HTU21D;51970;53.484;49.488;2023-02-01T20:12:11;-7.79;63.90
65369;HTU21D;51970;53.484;49.488;2023-02-01T20:14:39;-7.80;63.93
65369;HTU21D;51970;53.484;49.488;2023-02-01T20:17:06;-7.79;63.31
65369;HTU21D;51970;53.484;49.488;2023-02-01T20:19:32;-8.00;64.03
65369;HTU21D;51970;53.484;49.488;2023-02-01T20:21:59;-7.87;64.53
65369;HTU21D;51970;53.484;49.488;2023-02-01T20:24:25;-7.18;64.43
65369;HTU21D;51970;53.484;49.488;2023-02-01T20:26:52;-8.05;64.58
65369;HTU21D;51970;53.484;49.488;2023-02-01T20:29:21;-7.97;64.60
65369;HTU21D;51970;53.484;49.488;2023-02-01T20:31:47;-7.95;64.55
65369;HTU21D;51970;53.484;49.488;2023-02-01T20:34:14;-7.94;64.43
65369;HTU21D;51970;53.484;49.488;2023-02-01T20:36:41;-7.93;64.37
65369;HTU21D;51970;53.484;49.488;2023-02-01T20:39:07;-7.24;64.34
65369;HTU21D;51970;53.484;49.488;2023-02-01T20:41:35;-7.90;64.47
65369;HTU21D;51970;53.484;49.488;2023-02-01T20:44:01;-7.96;64.93
65369;HTU21D;51970;53.484;49.488;2023-02-01T20:46:28;-7.64;64.59
65369;HTU21D;51970;53.484;49.488;2023-02-01T20:48:57;-8.00;64.41
65369;HTU21D;51970;53.484;49.488;2023-02-01T20:51:23;-7.99;65.24
65369;HTU21D;51970;53.484;49.488;2023-02-01T20:53:49;-7.98;64.64
65369;HTU21D;51970;53.484;49.488;2023-02-01T20:56:18;-8.03;64.93
65369;HTU21D;51970;53.484;49.488;2023-02-01T20:58:45;-8.00;65.17
65369;HTU21D;51970;53.484;49.488;2023-02-01T21:01:11;-7.93;64.79
65369;HTU21D;51970;53.484;49.488;2023-02-01T21:03:38;-8.01;64.78
65369;HTU21D;51970;53.484;49.488;2023-02-01T21:06:06;-7.99;64.80
65369;HTU21D;51970;53.484;49.488;2023-02-01T21:08:33;-8.04;64.75
65369;HTU21D;51970;53.484;49.488;2023-02-01T21:11:02;-7.98;64.28
65369;HTU21D;51970;53.484;49.488;2023-02-01T21:13:32;-8.10;63.90
65369;HTU21D;51970;53.484;49.488;2023-02-01T21:16:06;-7.99;64.01
65369;HTU21D;51970;53.484;49.488;2023-02-01T21:18:33;-8.08;63.94
65369;HTU21D;51970;53.484;49.488;2023-02-01T21:21:12;-8.10;63.94
65369;HTU21D;51970;53.484;49.488;2023-02-01T21:23:39;-8.05;64.05
65369;HTU21D;51970;53.484;49.488;2023-02-01T21:26:17;-8.10;63.95
65369;HTU21D;51970;53.484;49.488;2023-02-01T21:28:44;-8.07;64.08
65369;HTU21D;51970;53.484;49.488;2023-02-01T21:31:10;-8.07;63.93
65369;HTU21D;51970;53.484;49.488;2023-02-01T21:33:38;-8.22;64.35
65369;HTU21D;51970;53.484;49.488;2023-02-01T21:36:05;-8.11;64.46
65369;HTU21D;51970;53.484;49.488;2023-02-01T21:38:34;-8.24;64.92
65369;HTU21D;51970;53.484;49.488;2023-02-01T21:41:03;-8.19;65.14
65369;HTU21D;51970;53.484;49.488;2023-02-01T21:43:48;-8.19;65.42
65369;HTU21D;51970;53.484;49.488;2023-02-01T21:46:15;-8.26;65.21
65369;HTU21D;51970;53.484;49.488;2023-02-01T21:48:42;-8.29;65.66
65369;HTU21D;51970;53.484;49.488;2023-02-01T21:51:08;-8.28;66.20
65369;HTU21D;51970;53.484;49.488;2023-02-01T21:53:35;-8.23;66.46
65369;HTU21D;51970;53.484;49.488;2023-02-01T21:56:01;-8.29;66.41
65369;HTU21D;51970;53.484;49.488;2023-02-01T21:58:30;-8.35;66.79
65369;HTU21D;51970;53.484;49.488;2023-02-01T22:00:56;-8.36;66.55
65369;HTU21D;51970;53.484;49.488;2023-02-01T22:03:22;-8.18;67.09
65369;HTU21D;51970;53.484;49.488;2023-02-01T22:05:50;-8.21;66.33
65369;HTU21D;51970;53.484;49.488;2023-02-01T22:08:16;-8.24;66.30
65369;HTU21D;51970;53.484;49.488;2023-02-01T22:10:42;-8.28;66.56
65369;HTU21D;51970;53.484;49.488;2023-02-01T22:13:09;-8.22;67.10
65369;HTU21D;51970;53.484;49.488;2023-02-01T22:15:35;-8.30;66.82
65369;HTU21D;51970;53.484;49.488;2023-02-01T22:18:01;-8.35;67.27
65369;HTU21D;51970;53.484;49.488;2023-02-01T22:20:27;-8.34;67.26
65369;HTU21D;51970;53.484;49.488;2023-02-01T22:22:54;-8.29;67.39
65369;HTU21D;51970;53.484;49.488;2023-02-01T22:25:24;-8.22;67.66
65369;HTU21D;51970;53.484;49.488;2023-02-01T22:27:50;-8.13;67.48
65369;HTU21D;51970;53.484;49.488;2023-02-01T22:30:17;-8.16;67.47
65369;HTU21D;51970;53.484;49.488;2023-02-01T22:32:43;-8.11;67.39
65369;HTU21D;51970;53.484;49.488;2023-02-01T22:35:10;-8.19;67.24
65369;HTU21D;51970;53.484;49.488;2023-02-01T22:37:39;-8.09;67.68
65369;HTU21D;51970;53.484;49.488;2023-02-01T22:40:06;-8.04;67.73
65369;HTU21D;51970;53.484;49.488;2023-02-01T22:42:33;-8.01;67.59
65369;HTU21D;51970;53.484;49.488;2023-02-01T22:44:59;-7.29;67.39
65369;HTU21D;51970;53.484;49.488;2023-02-01T22:47:26;-8.16;67.48
65369;HTU21D;51970;53.484;49.488;2023-02-01T22:49:53;-8.03;68.03
65369;HTU21D;51970;53.484;49.488;2023-02-01T22:52:19;-8.04;67.81
65369;HTU21D;51970;53.484;49.488;2023-02-01T22:54:45;-8.00;67.97
65369;HTU21D;51970;53.484;49.488;2023-02-01T22:57:12;-7.97;68.84
65369;HTU21D;51970;53.484;49.488;2023-02-01T22:59:38;-7.95;69.27
65369;HTU21D;51970;53.484;49.488;2023-02-01T23:02:04;-7.89;69.96
65369;HTU21D;51970;53.484;49.488;2023-02-01T23:04:30;-7.94;70.69
65369;HTU21D;51970;53.484;49.488;2023-02-01T23:06:56;-7.92;71.06
65369;HTU21D;51970;53.484;49.488;2023-02-01T23:09:24;-7.82;71.57
65369;HTU21D;51970;53.484;49.488;2023-02-01T23:11:51;-7.70;71.35
65369;HTU21D;51970;53.484;49.488;2023-02-01T23:14:18;-7.60;71.31
65369;HTU21D;51970;53.484;49.488;2023-02-01T23:16:45;-7.52;71.24
65369;HTU21D;51970;53.484;49.488;2023-02-01T23:19:12;-7.48;71.06
65369;HTU21D;51970;53.484;49.488;2023-02-01T23:21:39;-7.44;71.23
65369;HTU21D;51970;53.484;49.488;2023-02-01T23:24:06;-7.48;70.89
65369;HTU21D;51970;53.484;49.488;2023-02-01T23:26:35;-7.36;71.23
65369;HTU21D;51970;53.484;49.488;2023-02-01T23:29:02;-7.53;71.37
65369;HTU21D;51970;53.484;49.488;2023-02-01T23:31:30;-7.48;71.43
65369;HTU21D;51970;53.484;49.488;2023-02-01T23:33:58;-7.47;71.16
65369;HTU21D;51970;53.484;49.488;2023-02-01T23:36:26;-7.19;71.53
65369;HTU21D;51970;53.484;49.488;2023-02-01T23:38:53;-7.36;71.57
65369;HTU21D;51970;53.484;49.488;2023-02-01T23:41:21;-7.45;71.57
65369;HTU21D;51970;53.484;49.488;2023-02-01T23:43:47;-7.45;72.09
65369;HTU21D;51970;53.484;49.488;2023-02-01T23:46:24;-7.41;72.25
65369;HTU21D;51970;53.484;49.488;2023-02-01T23:48:51;-7.30;72.36
65369;HTU21D;51970;53.484;49.488;2023-02-01T23:51:18;-7.33;72.40
65369;HTU21D;51970;53.484;49.488;2023-02-01T23:53:45;-7.29;72.90
65369;HTU21D;51970;53.484;49.488;2023-02-01T23:56:22;-7.31;73.67
65369;HTU21D;51970;53.484;49.488;2023-02-01T23:58:49;-7.33;75.13
